createdAt,value
2022-11-24T00:02:04.517Z,99705.41
2022-11-24T00:04:51.675Z,99703.44
2022-11-24T00:07:38.502Z,99701.46
2022-11-24T00:10:25.405Z,99701.04
2022-11-24T00:13:11.907Z,99701.34
2022-11-24T00:16:28.797Z,99700.77
2022-11-24T00:19:19.534Z,99705.66
2022-11-24T00:22:06.743Z,99709.84
2022-11-24T00:24:53.961Z,99711.28
2022-11-24T00:27:40.568Z,99710.42
2022-11-24T00:30:27.509Z,99704.66
2022-11-24T00:33:14.295Z,99706.08
2022-11-24T00:36:01.206Z,99712.73
2022-11-24T00:38:48.637Z,99716.77
2022-11-24T00:41:35.649Z,99714.33
2022-11-24T00:44:22.465Z,99709.98
2022-11-24T00:47:09.586Z,99714.89
2022-11-24T00:49:56.588Z,99712.48
2022-11-24T00:52:43.299Z,99712.66
2022-11-24T00:55:30.420Z,99712.09
2022-11-24T00:58:16.921Z,99713.10
2022-11-24T01:01:08.803Z,99713.92
2022-11-24T01:03:56.019Z,99715.83
2022-11-24T01:06:43.085Z,99718.62
2022-11-24T01:09:29.999Z,99719.64
2022-11-24T01:12:17.010Z,99719.13
2022-11-24T01:15:04.541Z,99719.52
2022-11-24T01:17:51.556Z,99713.97
2022-11-24T01:20:38.158Z,99711.35
2022-11-24T01:23:24.866Z,99711.52
2022-11-24T01:26:13.624Z,99710.15
2022-11-24T01:29:00.229Z,99711.09
2022-11-24T01:31:47.146Z,99714.08
2022-11-24T01:34:34.054Z,99721.61
2022-11-24T01:37:21.066Z,99726.52
2022-11-24T01:40:08.709Z,99729.34
2022-11-24T01:42:55.408Z,99733.55
2022-11-24T01:45:42.266Z,99737.79
2022-11-24T01:48:41.031Z,99742.16
2022-11-24T01:51:29.798Z,99736.61
2022-11-24T01:54:19.341Z,99736.27
2022-11-24T01:57:20.998Z,99732.42
2022-11-24T02:00:09.560Z,99729.42
2022-11-24T02:02:56.724Z,99728.70
2022-11-24T02:05:50.750Z,99728.30
2022-11-24T02:09:13.809Z,99727.57
2022-11-24T02:12:01.036Z,99721.40
2022-11-24T02:14:47.842Z,99720.48
2022-11-24T02:17:34.650Z,99722.81
2022-11-24T02:20:21.768Z,99726.18
2022-11-24T02:23:30.391Z,99724.30
2022-11-24T02:26:35.838Z,99721.31
2022-11-24T02:29:22.763Z,99719.40
2022-11-24T02:32:09.559Z,99723.78
2022-11-24T02:35:04.170Z,99718.73
2022-11-24T02:37:51.281Z,99715.59
2022-11-24T02:40:38.045Z,99721.36
2022-11-24T02:43:24.995Z,99716.13
2022-11-24T02:46:11.860Z,99720.34
2022-11-24T02:48:58.773Z,99724.55
2022-11-24T02:51:46.346Z,99727.73
2022-11-24T02:54:33.197Z,99730.73
2022-11-24T02:57:20.277Z,99731.42
2022-11-24T03:00:08.007Z,99734.02
2022-11-24T03:02:54.633Z,99739.79
2022-11-24T03:05:41.430Z,99745.73
2022-11-24T03:08:28.336Z,99750.27
2022-11-24T03:11:14.805Z,99745.03
2022-11-24T03:14:01.751Z,99745.02
2022-11-24T03:16:48.666Z,99746.08
2022-11-24T03:19:35.576Z,99747.30
2022-11-24T03:22:22.696Z,99750.63
2022-11-24T03:25:10.226Z,99754.12
2022-11-24T03:27:58.469Z,99754.83
2022-11-24T03:30:45.251Z,99754.32
2022-11-24T03:33:32.321Z,99756.59
2022-11-24T03:36:19.204Z,99763.05
2022-11-24T03:39:05.916Z,99763.23
2022-11-24T03:41:53.083Z,99762.52
2022-11-24T03:44:39.952Z,99761.63
2022-11-24T03:47:26.756Z,99764.06
2022-11-24T03:50:13.870Z,99765.97
2022-11-24T03:53:00.680Z,99766.07
2022-11-24T03:55:47.495Z,99755.52
2022-11-24T03:58:34.609Z,99757.23
2022-11-24T04:01:21.446Z,99753.85
2022-11-24T04:04:11.000Z,99751.20
2022-11-24T04:06:57.502Z,99751.36
2022-11-24T04:09:45.439Z,99752.60
2022-11-24T04:12:44.354Z,99754.52
2022-11-24T04:15:31.043Z,99757.52
2022-11-24T04:18:18.173Z,99751.74
2022-11-24T04:21:05.382Z,99755.58
2022-11-24T04:23:52.290Z,99754.70
2022-11-24T04:26:39.001Z,99757.48
2022-11-24T04:29:26.014Z,99761.83
2022-11-24T04:32:12.893Z,99760.02
2022-11-24T04:34:59.841Z,99757.20
2022-11-24T04:37:46.853Z,99761.09
2022-11-24T04:40:33.359Z,99766.52
2022-11-24T04:43:22.217Z,99773.15
2022-11-24T04:46:10.516Z,99777.37
2022-11-24T04:48:57.009Z,99784.55
2022-11-24T04:51:44.082Z,99790.02
2022-11-24T04:54:30.894Z,99792.20
2022-11-24T04:57:21.391Z,99798.50
2022-11-24T05:00:09.338Z,99804.27
2022-11-24T05:02:56.240Z,99808.29
2022-11-24T05:05:43.126Z,99816.00
2022-11-24T05:08:29.952Z,99823.70
2022-11-24T05:11:16.791Z,99825.45
2022-11-24T05:14:03.575Z,99830.88
2022-11-24T05:16:50.899Z,99832.98
2022-11-24T05:19:37.503Z,99832.45
2022-11-24T05:22:24.313Z,99832.98
2022-11-24T05:25:11.430Z,99834.88
2022-11-24T05:28:02.245Z,99832.05
2022-11-24T05:30:49.050Z,99834.44
2022-11-24T05:33:35.552Z,99834.75
2022-11-24T05:36:41.216Z,99830.16
2022-11-24T05:39:28.526Z,99833.80
2022-11-24T05:42:33.770Z,99835.85
2022-11-24T05:45:21.396Z,99839.56
2022-11-24T05:48:09.441Z,99837.66
2022-11-24T05:50:56.762Z,99836.26
2022-11-24T05:53:43.466Z,99836.97
2022-11-24T05:56:30.162Z,99840.64
2022-11-24T05:59:16.458Z,99840.48
2022-11-24T06:02:03.597Z,99847.66
2022-11-24T06:04:50.560Z,99848.87
2022-11-24T06:07:37.393Z,99848.70
2022-11-24T06:10:24.219Z,99858.81
2022-11-24T06:13:11.285Z,99862.47
2022-11-24T06:15:59.546Z,99864.70
2022-11-24T06:18:46.513Z,99870.77
2022-11-24T06:21:33.203Z,99879.15
2022-11-24T06:24:20.218Z,99879.65
2022-11-24T06:27:07.028Z,99889.45
2022-11-24T06:29:53.839Z,99893.30
2022-11-24T06:32:49.131Z,99898.92
2022-11-24T06:35:36.676Z,99905.95
2022-11-24T06:38:24.459Z,99917.02
2022-11-24T06:41:15.833Z,99918.97
2022-11-24T06:44:04.377Z,99925.62
2022-11-24T06:46:51.089Z,99936.48
2022-11-24T06:49:38.110Z,99938.41
2022-11-24T06:52:25.014Z,99938.06
2022-11-24T06:55:11.718Z,99945.57
2022-11-24T06:57:58.944Z,99950.80
2022-11-24T07:00:46.106Z,99952.71
2022-11-24T07:03:33.004Z,99956.52
2022-11-24T07:06:20.815Z,99961.38
2022-11-24T07:09:09.458Z,99964.15
2022-11-24T07:11:56.906Z,99966.77
2022-11-24T07:14:43.691Z,99967.63
2022-11-24T07:17:30.713Z,99968.52
2022-11-24T07:20:17.514Z,99972.54
2022-11-24T07:23:04.033Z,99966.58
2022-11-24T07:25:50.834Z,99956.23
2022-11-24T07:28:38.156Z,99959.71
2022-11-24T07:31:25.291Z,99955.33
2022-11-24T07:34:12.235Z,99961.65
2022-11-24T07:36:59.414Z,99966.02
2022-11-24T07:39:45.808Z,99966.50
2022-11-24T07:42:32.248Z,99968.58
2022-11-24T07:45:18.717Z,99969.61
2022-11-24T07:48:05.724Z,99970.27
2022-11-24T07:50:55.797Z,99969.90
2022-11-24T07:53:43.454Z,99969.50
2022-11-24T07:56:30.261Z,99967.65
2022-11-24T07:59:17.070Z,99964.25
2022-11-24T08:02:03.578Z,99962.94
2022-11-24T08:04:50.224Z,99963.88
2022-11-24T08:07:36.998Z,99962.92
2022-11-24T08:10:23.816Z,99966.55
2022-11-24T08:13:10.193Z,99972.27
2022-11-24T08:15:56.602Z,99973.80
2022-11-24T08:18:44.685Z,99977.68
2022-11-24T08:21:32.782Z,99979.17
2022-11-24T08:24:19.211Z,99986.77
2022-11-24T08:27:06.195Z,99994.58
2022-11-24T08:29:53.003Z,99998.64
2022-11-24T08:32:39.888Z,100001.23
2022-11-24T08:35:28.572Z,100000.33
2022-11-24T08:38:17.234Z,100009.17
2022-11-24T08:41:06.394Z,100006.81
2022-11-24T08:43:53.867Z,100004.92
2022-11-24T08:46:40.556Z,100007.42
2022-11-24T08:49:27.591Z,100005.98
2022-11-24T08:52:14.151Z,100005.96
2022-11-24T08:55:00.959Z,100006.45
2022-11-24T08:57:47.769Z,100010.69
2022-11-24T09:00:34.476Z,100018.88
2022-11-24T09:03:21.289Z,100018.46
2022-11-24T09:06:09.169Z,100018.49
2022-11-24T09:08:55.854Z,100015.63
2022-11-24T09:11:42.639Z,100017.20
2022-11-24T09:14:29.715Z,100019.27
2022-11-24T09:17:16.405Z,100022.16
2022-11-24T09:20:05.149Z,100021.21
2022-11-24T09:22:52.029Z,100020.05
2022-11-24T09:25:38.742Z,100019.73
2022-11-24T09:28:25.551Z,100019.18
2022-11-24T09:31:13.321Z,100020.53
2022-11-24T09:34:01.214Z,100020.45
2022-11-24T09:36:48.056Z,100020.91
2022-11-24T09:39:34.966Z,100016.73
2022-11-24T09:42:43.052Z,100020.38
2022-11-24T09:48:53.329Z,100024.25
2022-11-24T09:51:39.857Z,100019.73
2022-11-24T09:54:28.307Z,100018.51
2022-11-24T09:57:14.991Z,100016.75
2022-11-24T10:00:17.155Z,100018.45
2022-11-24T10:03:03.870Z,100015.49
2022-11-24T10:05:50.681Z,100012.20
2022-11-24T10:08:59.019Z,100010.23
2022-11-24T10:11:51.536Z,100012.34
2022-11-24T10:15:15.657Z,100017.00
2022-11-24T10:18:37.967Z,100017.43
2022-11-24T10:21:35.564Z,100010.09
2022-11-24T10:24:52.759Z,100010.01
2022-11-24T10:27:44.890Z,100010.41
2022-11-24T10:30:31.595Z,100016.25
2022-11-24T10:33:28.805Z,100012.63
2022-11-24T10:36:20.785Z,100018.59
2022-11-24T10:39:18.343Z,100016.52
2022-11-24T10:42:07.103Z,100023.20
2022-11-24T10:45:12.656Z,100027.39
2022-11-24T10:47:59.341Z,100023.61
2022-11-24T10:50:46.375Z,100020.23
2022-11-24T10:53:32.980Z,100021.23
2022-11-24T10:56:19.414Z,100024.73
2022-11-24T10:59:24.628Z,100026.02
2022-11-24T11:02:38.414Z,100023.73
2022-11-24T11:05:41.956Z,100022.25
2022-11-24T11:08:30.607Z,100021.95
2022-11-24T11:11:29.714Z,100017.14
2022-11-24T11:14:30.561Z,100016.76
2022-11-24T11:17:44.099Z,100017.66
2022-11-24T11:20:33.007Z,100018.17
2022-11-24T11:23:23.028Z,100020.34
2022-11-24T11:26:25.420Z,100015.45
2022-11-24T11:35:32.440Z,100019.77
2022-11-24T11:38:19.052Z,100018.39
2022-11-24T11:41:06.167Z,100017.52
2022-11-24T11:43:59.139Z,100017.63
2022-11-24T11:46:45.677Z,100018.19
2022-11-24T11:49:38.477Z,100020.42
2022-11-24T11:52:51.025Z,100026.14
2022-11-24T11:55:50.316Z,100029.87
2022-11-24T11:58:58.467Z,100032.52
2022-11-24T12:02:12.474Z,100035.78
2022-11-24T12:05:00.781Z,100037.67
2022-11-24T12:08:03.567Z,100028.48
2022-11-24T12:11:06.266Z,100023.48
2022-11-24T12:13:55.635Z,100022.49
2022-11-24T12:16:56.988Z,100023.33
2022-11-24T12:19:57.415Z,100021.55
2022-11-24T12:23:03.069Z,100024.74
2022-11-24T12:25:58.355Z,100026.64
2022-11-24T12:28:59.242Z,100026.34
2022-11-24T12:32:04.674Z,100021.47
2022-11-24T12:35:06.124Z,100022.15
2022-11-24T12:37:58.656Z,100021.55
2022-11-24T12:41:18.218Z,100022.80
2022-11-24T12:44:04.157Z,100028.04
2022-11-24T12:46:59.571Z,100036.55
2022-11-24T12:50:09.290Z,100036.59
2022-11-24T12:53:18.685Z,100037.49
2022-11-24T12:56:07.829Z,100039.59
2022-11-24T12:59:05.681Z,100038.58
2022-11-24T13:02:23.249Z,100040.36
2022-11-24T13:05:36.529Z,100041.59
2022-11-24T13:08:23.244Z,100044.48
2022-11-24T13:11:22.342Z,100040.21
2022-11-24T13:14:15.796Z,100040.42
2022-11-24T13:20:16.814Z,100044.89
2022-11-24T13:23:04.495Z,100050.13
2022-11-24T13:26:27.350Z,100049.70
2022-11-24T13:29:33.212Z,100056.64
2022-11-24T13:32:21.144Z,100063.46
2022-11-24T13:35:14.988Z,100065.73
2022-11-24T13:38:01.931Z,100068.67
2022-11-24T13:41:06.371Z,100066.39
2022-11-24T13:44:13.674Z,100063.92
2022-11-24T13:47:21.502Z,100062.68
2022-11-24T13:50:52.045Z,100067.23
2022-11-24T13:53:42.076Z,100063.90
2022-11-24T13:56:29.480Z,100061.89
2022-11-24T13:59:31.157Z,100059.68
2022-11-24T14:02:21.648Z,100063.45
2022-11-24T14:05:08.104Z,100067.09
2022-11-24T14:07:54.733Z,100070.73
2022-11-24T14:10:41.469Z,100074.00
2022-11-24T14:13:30.099Z,100076.34
2022-11-24T14:16:18.149Z,100079.55
2022-11-24T14:19:09.785Z,100074.76
2022-11-24T14:21:56.392Z,100083.30
2022-11-24T14:24:45.522Z,100091.98
2022-11-24T14:27:37.388Z,100099.85
2022-11-24T14:30:24.736Z,100102.82
2022-11-24T14:33:12.439Z,100106.60
2022-11-24T14:35:58.708Z,100109.64
2022-11-24T14:38:45.307Z,100113.95
2022-11-24T14:41:32.395Z,100118.30
2022-11-24T14:44:24.304Z,100118.54
2022-11-24T14:47:32.979Z,100120.48
2022-11-24T14:50:19.954Z,100116.05
2022-11-24T14:53:06.424Z,100122.70
2022-11-24T14:56:10.919Z,100124.23
2022-11-24T14:58:57.765Z,100119.24
2022-11-24T15:01:44.594Z,100122.81
2022-11-24T15:05:00.755Z,100122.87
2022-11-24T15:07:39.775Z,100128.60
2022-11-24T15:10:37.981Z,100128.32
2022-11-24T15:13:24.484Z,100128.17
2022-11-24T15:16:19.253Z,100134.71
2022-11-24T15:19:08.138Z,100134.23
2022-11-24T15:21:54.775Z,100137.34
2022-11-24T15:24:51.488Z,100139.25
2022-11-24T15:27:37.965Z,100147.96
2022-11-24T15:30:25.073Z,100149.20
2022-11-24T15:33:18.777Z,100154.65
2022-11-24T15:36:05.381Z,100157.33
2022-11-24T15:38:52.504Z,100157.23
2022-11-24T15:41:40.400Z,100159.04
2022-11-24T15:44:26.906Z,100160.95
2022-11-24T15:47:13.715Z,100167.39
2022-11-24T15:50:00.259Z,100169.02
2022-11-24T15:52:47.172Z,100169.45
2022-11-24T15:55:33.820Z,100168.15
2022-11-24T15:58:20.382Z,100174.77
2022-11-24T16:01:07.262Z,100177.01
2022-11-24T16:03:54.001Z,100176.64
2022-11-24T16:06:40.604Z,100175.80
2022-11-24T16:09:27.172Z,100177.05
2022-11-24T16:12:13.803Z,100178.38
2022-11-24T16:15:00.685Z,100177.33
2022-11-24T16:17:48.371Z,100177.95
2022-11-24T16:20:36.214Z,100180.64
2022-11-24T16:23:22.700Z,100180.90
2022-11-24T16:26:09.816Z,100186.36
2022-11-24T16:28:56.648Z,100185.14
2022-11-24T16:31:43.588Z,100192.91
2022-11-24T16:34:30.347Z,100193.63
2022-11-24T16:37:16.896Z,100192.79
2022-11-24T16:40:03.870Z,100191.20
2022-11-24T16:42:50.785Z,100198.40
2022-11-24T16:45:40.822Z,100199.29
2022-11-24T16:48:35.564Z,100199.42
2022-11-24T16:51:22.838Z,100207.41
2022-11-24T16:54:10.518Z,100215.38
2022-11-24T16:56:57.480Z,100218.22
2022-11-24T16:59:46.110Z,100216.51
2022-11-24T17:02:33.725Z,100223.79
2022-11-24T17:05:20.762Z,100227.13
2022-11-24T17:08:07.437Z,100232.42
2022-11-24T17:10:53.838Z,100230.35
2022-11-24T17:13:40.760Z,100232.48
2022-11-24T17:16:27.719Z,100233.35
2022-11-24T17:19:14.645Z,100236.16
2022-11-24T17:22:01.384Z,100236.86
2022-11-24T17:24:48.398Z,100242.65
2022-11-24T17:27:35.409Z,100243.53
2022-11-24T17:30:22.020Z,100249.47
2022-11-24T17:33:08.726Z,100254.02
2022-11-24T17:35:55.357Z,100259.95
2022-11-24T17:38:42.454Z,100254.27
2022-11-24T17:41:29.297Z,100257.07
2022-11-24T17:44:15.868Z,100264.30
2022-11-24T17:47:02.280Z,100262.38
2022-11-24T17:49:49.182Z,100265.23
2022-11-24T17:52:36.004Z,100265.25
2022-11-24T17:55:22.807Z,100269.69
2022-11-24T17:58:09.916Z,100272.55
2022-11-24T18:00:57.195Z,100279.27
2022-11-24T18:03:45.822Z,100279.67
2022-11-24T18:06:35.201Z,100279.52
2022-11-24T18:09:22.281Z,100282.01
2022-11-24T18:12:08.582Z,100284.32
2022-11-24T18:14:55.390Z,100286.28
2022-11-24T18:17:42.174Z,100291.19
2022-11-24T18:20:29.182Z,100294.66
2022-11-24T18:23:16.130Z,100294.09
2022-11-24T18:26:04.579Z,100293.63
2022-11-24T18:28:51.590Z,100294.75
2022-11-24T18:31:38.731Z,100297.31
2022-11-24T18:34:25.517Z,100293.77
2022-11-24T18:37:13.720Z,100294.66
2022-11-24T18:40:00.371Z,100297.81
2022-11-24T18:42:46.977Z,100302.19
2022-11-24T18:45:33.938Z,100297.63
2022-11-24T18:48:22.657Z,100298.00
2022-11-24T18:51:14.373Z,100295.41
2022-11-24T18:54:03.079Z,100294.23
2022-11-24T18:56:49.429Z,100288.85
2022-11-24T18:59:36.956Z,100290.45
2022-11-24T19:02:24.098Z,100292.40
2022-11-24T19:05:10.780Z,100292.21
2022-11-24T19:07:57.372Z,100297.09
2022-11-24T19:10:45.529Z,100296.73
2022-11-24T19:13:32.204Z,100298.78
2022-11-24T19:16:19.666Z,100299.09
2022-11-24T19:19:06.573Z,100300.04
2022-11-24T19:21:53.418Z,100301.01
2022-11-24T19:24:41.131Z,100301.64
2022-11-24T19:27:27.928Z,100301.89
2022-11-24T19:30:16.683Z,100310.21
2022-11-24T19:33:03.162Z,100307.79
2022-11-24T19:35:59.723Z,100308.19
2022-11-24T19:38:54.564Z,100310.66
2022-11-24T19:41:41.977Z,100314.17
2022-11-24T19:44:28.966Z,100318.38
2022-11-24T19:47:16.185Z,100322.75
2022-11-24T19:50:07.412Z,100331.09
2022-11-24T19:52:57.179Z,100330.14
2022-11-24T19:55:43.580Z,100332.52
2022-11-24T19:58:30.592Z,100334.23
2022-11-24T20:01:31.438Z,100335.29
2022-11-24T20:04:18.245Z,100340.58
2022-11-24T20:07:04.992Z,100339.77
2022-11-24T20:09:51.460Z,100344.36
2022-11-24T20:12:38.167Z,100345.96
2022-11-24T20:15:24.873Z,100349.50
2022-11-24T20:18:11.790Z,100352.69
2022-11-24T20:21:03.577Z,100356.91
2022-11-24T20:23:57.385Z,100359.54
2022-11-24T20:26:45.940Z,100366.38
2022-11-24T20:29:34.018Z,100366.02
2022-11-24T20:32:20.892Z,100371.45
2022-11-24T20:35:07.872Z,100378.44
2022-11-24T20:37:54.934Z,100375.88
2022-11-24T20:40:41.838Z,100380.19
2022-11-24T20:43:32.130Z,100377.63
2022-11-24T20:46:19.685Z,100380.51
2022-11-24T20:49:07.101Z,100379.06
2022-11-24T20:51:57.694Z,100384.14
2022-11-24T20:54:46.949Z,100384.16
2022-11-24T20:57:33.556Z,100383.29
2022-11-24T21:00:20.368Z,100385.76
2022-11-24T21:03:07.332Z,100388.77
2022-11-24T21:05:55.804Z,100392.65
2022-11-24T21:08:42.842Z,100393.23
2022-11-24T21:11:30.274Z,100396.58
2022-11-24T21:14:16.937Z,100397.47
2022-11-24T21:17:03.585Z,100402.31
2022-11-24T21:19:49.889Z,100403.67
2022-11-24T21:22:39.062Z,100404.66
2022-11-24T21:25:25.857Z,100400.52
2022-11-24T21:28:13.184Z,100399.59
2022-11-24T21:31:07.265Z,100400.65
2022-11-24T21:33:54.490Z,100401.20
2022-11-24T21:36:44.900Z,100405.45
2022-11-24T21:39:31.761Z,100407.56
2022-11-24T21:42:18.810Z,100407.74
2022-11-24T21:45:07.371Z,100408.13
2022-11-24T21:47:54.205Z,100409.38
2022-11-24T21:50:40.981Z,100411.52
2022-11-24T21:53:32.204Z,100414.17
2022-11-24T21:56:22.014Z,100411.74
2022-11-24T21:59:08.746Z,100417.55
2022-11-24T22:01:55.246Z,100419.70
2022-11-24T22:04:42.173Z,100418.09
2022-11-24T22:07:32.582Z,100420.16
2022-11-24T22:10:19.341Z,100419.64
2022-11-24T22:13:05.830Z,100421.77
2022-11-24T22:16:08.627Z,100422.27
2022-11-24T22:18:54.855Z,100419.48
2022-11-24T22:21:41.293Z,100418.23
2022-11-24T22:24:28.309Z,100417.70
2022-11-24T22:27:15.015Z,100420.20
2022-11-24T22:30:02.748Z,100422.15
2022-11-24T22:32:49.660Z,100421.27
2022-11-24T22:35:36.200Z,100423.91
2022-11-24T22:38:22.870Z,100422.19
2022-11-24T22:41:11.628Z,100426.42
2022-11-24T22:43:58.543Z,100425.50
2022-11-24T22:46:44.941Z,100427.58
2022-11-24T22:49:31.519Z,100432.84
2022-11-24T22:52:18.642Z,100440.02
2022-11-24T22:55:05.753Z,100445.10
2022-11-24T22:57:56.861Z,100441.20
2022-11-24T23:00:43.600Z,100440.32
2022-11-24T23:03:30.711Z,100443.33
2022-11-24T23:06:20.451Z,100440.30
2022-11-24T23:09:07.733Z,100446.96
2022-11-24T23:11:54.274Z,100445.33
2022-11-24T23:14:41.137Z,100448.13
2022-11-24T23:17:27.636Z,100444.39
2022-11-24T23:20:15.065Z,100440.86
2022-11-24T23:23:01.566Z,100438.42
2022-11-24T23:25:48.476Z,100438.41
2022-11-24T23:28:35.190Z,100438.23
2022-11-24T23:31:24.655Z,100438.20
2022-11-24T23:34:11.166Z,100440.83
2022-11-24T23:36:57.670Z,100445.36
2022-11-24T23:39:44.688Z,100449.02
2022-11-24T23:42:31.392Z,100450.35
2022-11-24T23:45:17.893Z,100450.62
2022-11-24T23:48:05.455Z,100451.38
2022-11-24T23:50:52.026Z,100448.13
2022-11-24T23:53:39.049Z,100452.49
2022-11-24T23:56:29.137Z,100449.13
2022-11-24T23:59:17.475Z,100446.33
